Fourchu: Past 24 Hour Conditions

 

St.Paul Island

04:00 AM ADT 22 September 2014
This table is a summary of hourly weather conditions for the past 24 hours.
Date / Time
(ADT)
Wind(knots) Conditions Visibility(km) Pressure(kPa) Air tempC) Relative humidity(%) Dew pointC)
22 September 2014
4:00 SSE 18 gust 24 N/A N/A 100.5 16 100 16
3:00 SE 23 N/A N/A 100.7 16 99 16
2:00 SSE 8 N/A N/A 101.0 15 98 15
1:00 SSE 9 N/A N/A 101.2 16 97 15
0:00 SSE 17 N/A N/A 101.3 17 95 16
21 September 2014
23:00 S 19 gust 24 N/A N/A 101.4 17 92 16
22:00 S 16 gust 23 N/A N/A 101.4 19 87 17
21:00 S 15 gust 23 N/A N/A 101.4 19 82 16
20:00 S 20 gust 28 N/A N/A 101.4 20 73 15
19:00 S 23 gust 30 N/A N/A 101.3 20 71 14
18:00 S 21 gust 31 N/A N/A 101.3 20 70 14
17:00 S 20 gust 26 N/A N/A 101.3 19 73 14
16:00 S 17 gust 27 N/A N/A 101.4 20 69 14
15:00 S 18 gust 26 N/A N/A 101.4 20 64 13
14:00 S 15 gust 22 N/A N/A 101.4 21 58 13
13:00 S 14 gust 22 N/A N/A 101.5 19 70 13
12:00 S 15 gust 22 N/A N/A 101.5 19 64 12
11:00 S 16 gust 23 N/A N/A 101.6 18 69 12
10:00 S 13 gust 18 N/A N/A 101.6 17 67 11
9:00 SW 15 N/A N/A 101.6 16 70 11
8:00 SW 20 gust 25 N/A N/A 101.6 16 73 11
7:00 SW 22 gust 27 N/A N/A 101.6 16 76 12
6:00 WSW 30 gust 37 N/A N/A 101.5 16 77 12
5:00 WSW 35 N/A N/A 101.4 16 76 11
4:00 WSW 35 N/A N/A 101.4 15 76 11
 
Map of Atlantic - Newfoundland marine weather areas Southwestern Grand Banks - 44138 Banquereau - 44139 Tail of the Bank - 44140 Nickerson Bank - 44251 Northeast Burgeo Bank - 44255 Blanc-Sablon Airport Cap Whittle Chevery Natashquan Airport Heath Point Miscou Island Grand Étang Ingonish Beach North Mountain St.Paul Island J.A. Douglas McCurdy Sydney Airport Charlottetown Airport East Point North Cape Argentia Bonavista Burgeo Cape Race Corner Brook Daniel's Harbour Englee Ferolle Point La Scie Port aux Basques Rocky Harbour Sagona Island St. Anthony Airport St. John's Int'l Airport St. Lawrence Stephenville Airport Twillingate Winterland Wreckhouse Cartwright Airport Mary's Harbour Grates Cove Pool's Island Marticot Island Long Pond Îles de la Madeleine Airport
Legend: buoyBuoy land stationLand Station